Terminal Aerodrome Forecast
Issued by NWS Medford, OR

Home | Current Version | Previous Version | Text Only | Print | Product List | Glossary On
Versions: 1 2 3 4 5 6 7 8 9 10 11 12 13 14 15 16 17 18 19 20 21 22
000
FTUS46 KMFR 301100
TAFMFR
TAF
KMFR 301138Z 3012/3112 00000KT 6SM BR FEW002 OVC007
      TEMPO 3012/3014 3SM BR OVC002
     FM302000 00000KT P6SM SCT007 BKN015
     FM302200 VRB04KT P6SM BKN040
     FM310500 00000KT P6SM OVC025=

USA.gov is the U.S. government's official web portal to all federal, state and local government web resources and services.